createdAt,value
2018-01-12T00:01:18.113Z,1023.4
2018-01-12T00:06:18.120Z,1023.3
2018-01-12T00:11:18.063Z,1023.5
2018-01-12T00:16:17.997Z,1023.5
2018-01-12T00:21:18.110Z,1023.6
2018-01-12T00:26:18.046Z,1023.6
2018-01-12T00:31:18.060Z,1023.7
2018-01-12T00:36:18.099Z,1023.7
2018-01-12T00:41:18.159Z,1023.8
2018-01-12T00:46:18.152Z,1023.8
2018-01-12T00:51:18.237Z,1024
2018-01-12T00:56:18.137Z,1024
2018-01-12T01:01:18.154Z,1024.1
2018-01-12T01:06:18.173Z,1024.2
2018-01-12T01:11:17.994Z,1024.2
2018-01-12T01:16:17.991Z,1024.3
2018-01-12T01:21:18.177Z,1024.4
2018-01-12T01:26:17.981Z,1024.6
2018-01-12T01:31:18.128Z,1024.7
2018-01-12T01:36:18.003Z,1024.9
2018-01-12T01:41:18.198Z,1024.8
2018-01-12T01:46:18.126Z,1024.7
2018-01-12T01:51:18.112Z,1024.8
2018-01-12T01:56:18.288Z,1024.7
2018-01-12T02:01:18.137Z,1024.8
2018-01-12T02:06:18.126Z,1024.9
2018-01-12T02:11:18.174Z,1024.9
2018-01-12T02:16:18.032Z,1024.9
2018-01-12T02:21:18.119Z,1025
2018-01-12T02:26:18.153Z,1025
2018-01-12T02:31:18.026Z,1025.1
2018-01-12T02:36:18.229Z,1025.1
2018-01-12T02:41:18.260Z,1025.2
2018-01-12T02:46:18.026Z,1025.2
2018-01-12T02:51:18.035Z,1025.2
2018-01-12T02:56:18.280Z,1025.2
2018-01-12T03:01:18.157Z,1025.2
2018-01-12T03:06:18.176Z,1025.1
2018-01-12T03:11:18.226Z,1025.3
2018-01-12T03:16:18.389Z,1025.3
2018-01-12T03:21:19.620Z,1025.3
2018-01-12T03:26:20.902Z,1025.2
2018-01-12T03:31:19.773Z,1025.2
2018-01-12T03:36:19.812Z,1025.2
2018-01-12T03:41:19.887Z,1025.2
2018-01-12T03:46:29.750Z,1025.2
2018-01-12T03:51:19.812Z,1025.3
2018-01-12T03:56:19.831Z,1025.3
2018-01-12T04:01:19.874Z,1025.3
2018-01-12T04:06:29.696Z,1025.3
2018-01-12T04:11:19.720Z,1025.2
2018-01-12T04:16:19.804Z,1025.2
2018-01-12T04:21:19.800Z,1025.3
2018-01-12T04:26:19.830Z,1025.4
2018-01-12T04:31:19.971Z,1025.4
2018-01-12T04:36:20.008Z,1025.5
2018-01-12T04:41:19.790Z,1025.5
2018-01-12T04:46:19.938Z,1025.6
2018-01-12T04:51:19.895Z,1025.6
2018-01-12T04:56:20.063Z,1025.6
2018-01-12T05:01:19.737Z,1025.5
2018-01-12T05:06:19.904Z,1025.5
2018-01-12T05:11:19.814Z,1025.5
2018-01-12T05:16:19.844Z,1025.4
2018-01-12T05:21:19.922Z,1025.4
2018-01-12T05:26:19.958Z,1025.3
2018-01-12T05:31:19.723Z,1025.4
2018-01-12T05:36:19.828Z,1025.5
2018-01-12T05:41:19.954Z,1025.6
2018-01-12T05:46:19.896Z,1025.7
2018-01-12T05:51:19.795Z,1025.7
2018-01-12T05:56:19.787Z,1025.7
2018-01-12T06:01:19.986Z,1025.8
2018-01-12T06:06:20.053Z,1025.9
2018-01-12T06:11:19.859Z,1026
2018-01-12T06:16:19.880Z,1026
2018-01-12T06:21:19.713Z,1026.1
2018-01-12T06:26:19.811Z,1026.2
2018-01-12T06:31:19.841Z,1026.2
2018-01-12T06:36:19.883Z,1026.4
2018-01-12T06:41:19.903Z,1026.4
2018-01-12T06:46:19.832Z,1026.5
2018-01-12T06:51:19.871Z,1026.5
2018-01-12T06:56:19.732Z,1026.6
2018-01-12T07:01:19.953Z,1026.7
2018-01-12T07:06:19.840Z,1026.7
2018-01-12T07:11:19.990Z,1026.5
2018-01-12T07:16:19.909Z,1026.5
2018-01-12T07:21:19.833Z,1026.7
2018-01-12T07:26:19.902Z,1026.7
2018-01-12T07:31:19.942Z,1026.6
2018-01-12T07:36:20.038Z,1026.7
2018-01-12T07:41:19.759Z,1026.7
2018-01-12T07:46:19.859Z,1026.7
2018-01-12T07:51:19.908Z,1026.9
2018-01-12T07:56:19.963Z,1027
2018-01-12T08:01:19.981Z,1027.1
2018-01-12T08:06:19.918Z,1027.1
2018-01-12T08:11:20.042Z,1027.1
2018-01-12T08:16:20.071Z,1027.1
2018-01-12T08:21:19.919Z,1027.1
2018-01-12T08:26:19.929Z,1027.1
2018-01-12T08:31:19.957Z,1027.2
2018-01-12T08:36:19.880Z,1027.1
2018-01-12T08:41:19.921Z,1027.2
2018-01-12T08:46:20.013Z,1027.2
2018-01-12T08:51:20.104Z,1027.2
2018-01-12T08:56:20.006Z,1027.3
2018-01-12T09:01:19.984Z,1027.2
2018-01-12T09:06:20.010Z,1027.3
2018-01-12T09:11:19.903Z,1027.4
2018-01-12T09:16:19.972Z,1027.4
2018-01-12T09:21:20.075Z,1027.5
2018-01-12T09:26:19.980Z,1027.5
2018-01-12T09:31:19.938Z,1027.5
2018-01-12T09:36:19.951Z,1027.6
2018-01-12T09:41:19.975Z,1027.7
2018-01-12T09:46:20.497Z,1027.6
2018-01-12T09:51:19.946Z,1027.6
2018-01-12T09:56:19.984Z,1027.5
2018-01-12T10:01:19.844Z,1027.4
2018-01-12T10:06:19.988Z,1027.3
2018-01-12T10:11:19.930Z,1027.4
2018-01-12T10:16:19.961Z,1027.4
2018-01-12T10:21:19.898Z,1027.6
2018-01-12T10:26:19.951Z,1027.5
2018-01-12T10:31:20.003Z,1027.4
2018-01-12T10:36:19.855Z,1027.4
2018-01-12T10:41:19.871Z,1027.4
2018-01-12T10:46:19.963Z,1027.4
2018-01-12T10:51:20.006Z,1027.4
2018-01-12T10:56:19.961Z,1027.4
2018-01-12T11:01:19.960Z,1027.4
2018-01-12T11:06:20.108Z,1027.4
2018-01-12T11:11:19.942Z,1027.4
2018-01-12T11:16:20.076Z,1027.4
2018-01-12T11:21:19.970Z,1027.4
2018-01-12T11:26:20.227Z,1027.3
2018-01-12T11:31:21.853Z,1027.3
2018-01-12T11:36:19.969Z,1027.3
2018-01-12T11:41:20.013Z,1027.2
2018-01-12T11:46:20.028Z,1027.2
2018-01-12T11:51:20.136Z,1027.1
2018-01-12T11:56:20.123Z,1027
2018-01-12T12:01:20.027Z,1027
2018-01-12T12:06:20.069Z,1027
2018-01-12T12:11:20.137Z,1026.9
2018-01-12T12:16:20.143Z,1026.9
2018-01-12T12:21:19.923Z,1026.9
2018-01-12T12:26:20.920Z,1026.9
2018-01-12T12:31:19.931Z,1026.9
2018-01-12T12:36:20.200Z,1026.9
2018-01-12T12:41:20.052Z,1026.9
2018-01-12T12:46:20.030Z,1026.9
2018-01-12T12:51:20.037Z,1026.9
2018-01-12T12:56:19.946Z,1027
2018-01-12T13:01:20.087Z,1026.9
2018-01-12T13:06:20.125Z,1026.9
2018-01-12T13:11:20.170Z,1027
2018-01-12T13:16:20.065Z,1027
2018-01-12T13:21:20.141Z,1027.1
2018-01-12T13:26:20.158Z,1027.1
2018-01-12T13:31:20.389Z,1027.1
2018-01-12T13:36:20.070Z,1027.1
2018-01-12T13:41:19.964Z,1027.2
2018-01-12T13:46:20.186Z,1027.2
2018-01-12T13:51:20.208Z,1027.3
2018-01-12T13:56:20.186Z,1027.4
2018-01-12T14:01:20.072Z,1027.5
2018-01-12T14:06:20.377Z,1027.5
2018-01-12T14:11:20.108Z,1027.5
2018-01-12T14:16:20.182Z,1027.6
2018-01-12T14:21:20.186Z,1027.6
2018-01-12T14:26:20.193Z,1027.6
2018-01-12T14:31:20.177Z,1027.7
2018-01-12T14:36:20.385Z,1027.7
2018-01-12T14:41:20.277Z,1027.7
2018-01-12T14:46:20.180Z,1027.7
2018-01-12T14:51:20.473Z,1028
2018-01-12T14:56:20.156Z,1028.1
2018-01-12T15:01:20.009Z,1028
2018-01-12T15:06:20.151Z,1028.2
2018-01-12T15:11:20.031Z,1028.1
2018-01-12T15:16:20.174Z,1028.1
2018-01-12T15:21:19.999Z,1028.2
2018-01-12T15:26:20.009Z,1028.2
2018-01-12T15:31:19.960Z,1028.2
2018-01-12T15:36:19.968Z,1028.2
2018-01-12T15:41:20.231Z,1028.2
2018-01-12T15:46:20.169Z,1028.3
2018-01-12T15:51:20.372Z,1028.3
2018-01-12T15:56:19.995Z,1028.4
2018-01-12T16:01:29.980Z,1028.5
2018-01-12T16:06:20.163Z,1028.4
2018-01-12T16:11:20.363Z,1028.5
2018-01-12T16:16:20.179Z,1028.4
2018-01-12T16:21:20.142Z,1028.4
2018-01-12T16:26:20.179Z,1028.4
2018-01-12T16:31:20.111Z,1028.5
2018-01-12T16:36:20.310Z,1028.4
2018-01-12T16:41:20.285Z,1028.5
2018-01-12T16:46:20.170Z,1028.4
2018-01-12T16:51:20.124Z,1028.4
2018-01-12T16:56:20.245Z,1028.4
2018-01-12T17:01:20.657Z,1028.5
2018-01-12T17:06:20.052Z,1028.5
2018-01-12T17:11:20.035Z,1028.5
2018-01-12T17:16:20.032Z,1028.5
2018-01-12T17:21:20.201Z,1028.5
2018-01-12T17:26:20.290Z,1028.5
2018-01-12T17:31:20.017Z,1028.6
2018-01-12T17:36:20.086Z,1028.6
2018-01-12T17:41:20.280Z,1028.5
2018-01-12T17:46:20.081Z,1028.5
2018-01-12T17:51:20.182Z,1028.5
2018-01-12T17:56:20.211Z,1028.5
2018-01-12T18:01:20.109Z,1028.6
2018-01-12T18:06:20.091Z,1028.6
2018-01-12T18:11:20.230Z,1028.6
2018-01-12T18:16:20.128Z,1028.7
2018-01-12T18:21:20.367Z,1028.7
2018-01-12T18:26:20.229Z,1028.7
2018-01-12T18:31:20.257Z,1028.7
2018-01-12T18:36:20.258Z,1028.7
2018-01-12T18:41:20.329Z,1028.9
2018-01-12T18:46:20.249Z,1028.9
2018-01-12T18:51:20.278Z,1029
2018-01-12T18:56:30.338Z,1029
2018-01-12T19:01:20.235Z,1029.1
2018-01-12T19:06:20.259Z,1029.1
2018-01-12T19:11:20.202Z,1029.1
2018-01-12T19:16:20.323Z,1029.2
2018-01-12T19:21:20.388Z,1029.2
2018-01-12T19:26:20.781Z,1029.2
2018-01-12T19:31:20.817Z,1029.2
2018-01-12T19:36:20.203Z,1029.1
2018-01-12T19:41:20.832Z,1029.1
2018-01-12T19:46:20.304Z,1029.1
2018-01-12T19:51:20.727Z,1029.2
2018-01-12T19:56:20.391Z,1029.2
2018-01-12T20:01:21.450Z,1029.2
2018-01-12T20:06:21.070Z,1029.2
2018-01-12T20:11:21.225Z,1029.2
2018-01-12T20:16:20.440Z,1029.2
2018-01-12T20:21:21.193Z,1029.2
2018-01-12T20:26:20.338Z,1029.3
2018-01-12T20:31:20.269Z,1029.2
2018-01-12T20:36:21.050Z,1029.2
2018-01-12T20:41:20.760Z,1029.2
2018-01-12T20:46:20.191Z,1029.3
2018-01-12T20:51:21.446Z,1029.4
2018-01-12T20:56:23.168Z,1029.3
2018-01-12T21:01:20.690Z,1029.3
2018-01-12T21:06:20.379Z,1029.4
2018-01-12T21:11:20.175Z,1029.3
2018-01-12T21:16:22.451Z,1029.3
2018-01-12T21:21:20.984Z,1029.3
2018-01-12T21:26:20.282Z,1029.3
2018-01-12T21:31:20.887Z,1029.4
2018-01-12T21:36:22.044Z,1029.4
2018-01-12T21:41:23.084Z,1029.4
2018-01-12T21:46:20.615Z,1029.3
2018-01-12T21:51:20.422Z,1029.4
2018-01-12T21:56:20.578Z,1029.4
2018-01-12T22:01:21.038Z,1029.4
2018-01-12T22:06:20.974Z,1029.4
2018-01-12T22:11:20.251Z,1029.3
2018-01-12T22:16:22.308Z,1029.3
2018-01-12T22:21:20.425Z,1029.2
2018-01-12T22:26:20.206Z,1029.2
2018-01-12T22:31:21.276Z,1029.2
2018-01-12T22:36:20.676Z,1029.1
2018-01-12T22:41:21.140Z,1029.1
2018-01-12T22:46:22.752Z,1029.2
2018-01-12T22:51:20.440Z,1029.1
2018-01-12T22:56:20.750Z,1029
2018-01-12T23:01:23.036Z,1029.1
2018-01-12T23:06:20.709Z,1029
2018-01-12T23:11:20.645Z,1029
2018-01-12T23:16:20.697Z,1028.9
2018-01-12T23:21:20.941Z,1028.9
2018-01-12T23:26:20.759Z,1028.8
2018-01-12T23:31:30.920Z,1028.8
2018-01-12T23:36:20.761Z,1028.8
2018-01-12T23:41:20.797Z,1028.7
2018-01-12T23:46:21.181Z,1028.7
2018-01-12T23:51:25.428Z,1028.8
2018-01-12T23:56:20.936Z,1028.8
